createdAt,value
2022-08-21T00:02:25.394Z,100494.13
2022-08-21T00:04:57.186Z,100501.63
2022-08-21T00:07:26.985Z,100490.44
2022-08-21T00:09:55.346Z,100487.22
2022-08-21T00:12:23.658Z,100501.97
2022-08-21T00:14:57.203Z,100494.09
2022-08-21T00:17:27.707Z,100497.06
2022-08-21T00:19:57.212Z,100502.69
2022-08-21T00:22:26.102Z,100492.34
2022-08-21T00:24:54.576Z,100489.25
2022-08-21T00:27:23.977Z,100491.31
2022-08-21T00:29:55.860Z,100477.53
2022-08-21T00:32:27.740Z,100479.38
2022-08-21T00:34:55.937Z,100468.63
2022-08-21T00:37:24.115Z,100466.69
2022-08-21T00:39:52.428Z,100484.28
2022-08-21T00:42:23.752Z,100473.59
2022-08-21T00:44:52.626Z,100482.56
2022-08-21T00:47:22.262Z,100470.03
2022-08-21T00:49:50.545Z,100476.28
2022-08-21T00:52:28.644Z,100466.34
2022-08-21T00:55:00.654Z,100463.13
2022-08-21T00:57:44.044Z,100465.56
2022-08-21T01:00:29.940Z,100475.19
2022-08-21T01:03:03.247Z,100473.31
2022-08-21T01:05:36.806Z,100477.78
2022-08-21T01:08:07.872Z,100480.34
2022-08-21T01:10:38.171Z,100477.88
2022-08-21T01:13:11.377Z,100475.53
2022-08-21T01:15:47.619Z,100477.63
2022-08-21T01:18:18.556Z,100483.75
2022-08-21T01:21:16.150Z,100479.50
2022-08-21T01:23:49.424Z,100474.38
2022-08-21T01:26:24.049Z,100477.22
2022-08-21T01:29:15.664Z,100476.78
2022-08-21T01:31:44.561Z,100474.78
2022-08-21T01:34:13.533Z,100471.69
2022-08-21T01:36:43.607Z,100472.75
2022-08-21T01:39:13.083Z,100470.50
2022-08-21T01:41:41.280Z,100482.50
2022-08-21T01:44:11.268Z,100470.31
2022-08-21T01:46:40.570Z,100461.91
2022-08-21T01:49:09.830Z,100470.47
2022-08-21T01:51:37.837Z,100467.13
2022-08-21T01:54:08.096Z,100467.25
2022-08-21T01:56:49.570Z,100451.06
2022-08-21T01:59:17.604Z,100468.97
2022-08-21T02:01:45.856Z,100469.75
2022-08-21T02:04:13.995Z,100472.34
2022-08-21T02:06:42.860Z,100458.63
2022-08-21T02:09:13.672Z,100471.88
2022-08-21T02:11:44.705Z,100459.06
2022-08-21T02:14:16.060Z,100463.72
2022-08-21T02:17:03.400Z,100456.56
2022-08-21T02:19:37.856Z,100454.09
2022-08-21T02:22:12.629Z,100456.16
2022-08-21T02:24:54.037Z,100456.59
2022-08-21T02:27:27.638Z,100443.09
2022-08-21T02:29:59.370Z,100448.19
2022-08-21T02:32:27.745Z,100450.22
2022-08-21T02:34:56.127Z,100442.56
2022-08-21T02:37:26.025Z,100450.66
2022-08-21T02:39:54.823Z,100447.56
2022-08-21T02:42:23.850Z,100447.00
2022-08-21T02:44:52.092Z,100457.34
2022-08-21T02:47:20.664Z,100452.50
2022-08-21T02:49:49.453Z,100438.06
2022-08-21T02:52:18.237Z,100448.72
2022-08-21T02:54:48.149Z,100452.59
2022-08-21T02:57:16.640Z,100451.16
2022-08-21T02:59:45.525Z,100450.38
2022-08-21T03:02:14.515Z,100458.59
2022-08-21T03:04:46.709Z,100454.28
2022-08-21T03:07:18.226Z,100450.16
2022-08-21T03:09:55.502Z,100453.94
2022-08-21T03:12:26.650Z,100453.69
2022-08-21T03:15:00.060Z,100460.13
2022-08-21T03:17:30.271Z,100457.66
2022-08-21T03:19:59.167Z,100464.03
2022-08-21T03:22:30.835Z,100456.81
2022-08-21T03:25:00.434Z,100454.19
2022-08-21T03:27:31.798Z,100454.31
2022-08-21T03:30:00.248Z,100460.88
2022-08-21T03:32:29.042Z,100455.41
2022-08-21T03:34:57.751Z,100455.59
2022-08-21T03:37:25.882Z,100453.75
2022-08-21T03:39:54.417Z,100455.72
2022-08-21T03:42:22.409Z,100461.84
2022-08-21T03:44:50.910Z,100457.00
2022-08-21T03:47:19.473Z,100457.78
2022-08-21T03:49:47.677Z,100463.63
2022-08-21T03:52:16.468Z,100459.09
2022-08-21T03:54:46.201Z,100452.72
2022-08-21T03:57:14.604Z,100462.09
2022-08-21T03:59:44.353Z,100460.00
2022-08-21T04:02:20.446Z,100468.00
2022-08-21T04:04:49.385Z,100468.41
2022-08-21T04:07:18.683Z,100466.97
2022-08-21T04:09:47.515Z,100480.34
2022-08-21T04:12:15.899Z,100478.34
2022-08-21T04:14:44.802Z,100479.53
2022-08-21T04:17:13.090Z,100476.28
2022-08-21T04:19:42.025Z,100486.84
2022-08-21T04:22:10.356Z,100486.19
2022-08-21T04:24:39.254Z,100493.09
2022-08-21T04:27:07.464Z,100497.50
2022-08-21T04:29:39.916Z,100495.50
2022-08-21T04:32:08.420Z,100490.84
2022-08-21T04:34:38.703Z,100489.81
2022-08-21T04:37:07.594Z,100489.25
2022-08-21T04:39:36.565Z,100501.75
2022-08-21T04:42:08.703Z,100505.81
2022-08-21T04:44:37.688Z,100519.66
2022-08-21T04:47:07.012Z,100509.97
2022-08-21T04:49:36.403Z,100511.19
2022-08-21T04:52:06.613Z,100514.66
2022-08-21T04:54:35.571Z,100495.72
2022-08-21T04:57:11.358Z,100515.72
2022-08-21T04:59:51.488Z,100521.03
2022-08-21T05:02:22.410Z,100523.97
2022-08-21T05:04:54.573Z,100520.25
2022-08-21T05:07:42.651Z,100520.91
2022-08-21T05:10:13.895Z,100516.88
2022-08-21T05:12:43.889Z,100525.25
2022-08-21T05:15:14.392Z,100520.06
2022-08-21T05:17:43.110Z,100524.97
2022-08-21T05:20:14.820Z,100526.56
2022-08-21T05:22:44.589Z,100531.19
2022-08-21T05:25:12.854Z,100538.88
2022-08-21T05:27:41.385Z,100534.28
2022-08-21T05:30:13.098Z,100527.41
2022-08-21T05:32:41.090Z,100523.66
2022-08-21T05:35:10.432Z,100528.44
2022-08-21T05:37:59.226Z,100522.84
2022-08-21T05:40:47.594Z,100530.13
2022-08-21T05:43:34.210Z,100512.56
2022-08-21T05:46:02.217Z,100527.25
2022-08-21T05:48:31.564Z,100525.66
2022-08-21T05:51:09.708Z,100531.22
2022-08-21T05:53:39.295Z,100523.78
2022-08-21T05:56:07.877Z,100516.06
2022-08-21T05:58:36.693Z,100517.47
2022-08-21T06:01:06.544Z,100522.97
2022-08-21T06:03:38.598Z,100521.66
2022-08-21T06:06:07.132Z,100524.81
2022-08-21T06:08:36.793Z,100533.22
2022-08-21T06:11:07.906Z,100530.00
2022-08-21T06:13:37.864Z,100525.47
2022-08-21T06:16:15.808Z,100529.44
2022-08-21T06:18:46.316Z,100526.53
2022-08-21T06:21:15.285Z,100530.75
2022-08-21T06:23:45.029Z,100531.66
2022-08-21T06:26:15.081Z,100528.50
2022-08-21T06:28:44.851Z,100528.16
2022-08-21T06:31:23.078Z,100522.97
2022-08-21T06:33:52.089Z,100539.56
2022-08-21T06:36:24.759Z,100540.84
2022-08-21T06:38:54.103Z,100536.72
2022-08-21T06:41:26.452Z,100530.88
2022-08-21T06:43:57.060Z,100540.88
2022-08-21T06:46:29.476Z,100533.50
2022-08-21T06:49:01.066Z,100531.31
2022-08-21T06:51:30.892Z,100527.91
2022-08-21T06:53:59.601Z,100536.31
2022-08-21T06:56:28.023Z,100537.47
2022-08-21T06:58:56.839Z,100534.03
2022-08-21T07:01:27.932Z,100531.66
2022-08-21T07:03:56.701Z,100530.97
2022-08-21T07:06:26.012Z,100533.59
2022-08-21T07:08:58.893Z,100539.03
2022-08-21T07:11:27.223Z,100531.31
2022-08-21T07:13:57.467Z,100532.16
2022-08-21T07:16:26.108Z,100539.28
2022-08-21T07:18:53.961Z,100532.16
2022-08-21T07:21:26.026Z,100535.63
2022-08-21T07:23:56.663Z,100537.38
2022-08-21T07:26:27.259Z,100524.88
2022-08-21T07:28:56.623Z,100525.75
2022-08-21T07:31:27.237Z,100524.72
2022-08-21T07:33:56.025Z,100525.19
2022-08-21T07:36:24.818Z,100516.16
2022-08-21T07:38:53.663Z,100521.59
2022-08-21T07:41:26.627Z,100518.97
2022-08-21T07:43:54.725Z,100518.91
2022-08-21T07:46:24.481Z,100519.13
2022-08-21T07:48:53.717Z,100515.47
2022-08-21T07:51:27.887Z,100507.13
2022-08-21T07:54:00.139Z,100511.78
2022-08-21T07:56:31.561Z,100507.56
2022-08-21T07:58:59.975Z,100504.31
2022-08-21T08:01:28.040Z,100504.22
2022-08-21T08:03:57.259Z,100498.97
2022-08-21T08:06:27.023Z,100501.72
2022-08-21T08:08:55.134Z,100492.75
2022-08-21T08:11:24.795Z,100506.09
2022-08-21T08:13:53.818Z,100500.88
2022-08-21T08:16:22.083Z,100504.63
2022-08-21T08:18:51.808Z,100493.31
2022-08-21T08:21:22.813Z,100493.63
2022-08-21T08:23:51.654Z,100497.34
2022-08-21T08:26:20.883Z,100495.78
2022-08-21T08:28:48.833Z,100491.06
2022-08-21T08:31:17.694Z,100487.63
2022-08-21T08:33:47.013Z,100486.94
2022-08-21T08:36:20.490Z,100489.81
2022-08-21T08:38:49.381Z,100475.66
2022-08-21T08:41:30.762Z,100475.78
2022-08-21T08:44:07.355Z,100472.19
2022-08-21T08:46:57.848Z,100466.16
2022-08-21T08:49:56.065Z,100468.44
2022-08-21T08:52:41.503Z,100470.91
2022-08-21T08:55:18.566Z,100465.16
2022-08-21T08:57:50.392Z,100460.44
2022-08-21T09:00:24.275Z,100457.25
2022-08-21T09:03:01.430Z,100451.38
2022-08-21T09:06:01.770Z,100447.91
2022-08-21T09:09:19.359Z,100457.81
2022-08-21T09:12:12.970Z,100450.94
2022-08-21T09:14:50.773Z,100441.16
2022-08-21T09:17:35.727Z,100443.84
2022-08-21T09:20:38.668Z,100437.94
2022-08-21T09:23:35.909Z,100435.91
2022-08-21T09:26:14.318Z,100436.66
2022-08-21T09:28:43.975Z,100431.78
2022-08-21T09:31:34.172Z,100428.59
2022-08-21T09:34:14.312Z,100427.41
2022-08-21T09:36:51.469Z,100423.09
2022-08-21T09:39:42.629Z,100418.72
2022-08-21T09:42:28.271Z,100429.19
2022-08-21T09:45:15.112Z,100415.69
2022-08-21T09:47:47.701Z,100423.38
2022-08-21T09:50:28.571Z,100417.88
2022-08-21T09:53:02.102Z,100408.84
2022-08-21T09:56:12.367Z,100412.91
2022-08-21T09:58:46.119Z,100418.53
2022-08-21T10:01:44.818Z,100414.00
2022-08-21T10:04:15.552Z,100422.72
2022-08-21T10:06:44.060Z,100415.09
2022-08-21T10:09:21.754Z,100406.81
2022-08-21T10:12:25.831Z,100413.56
2022-08-21T10:15:14.601Z,100409.34
2022-08-21T10:18:18.352Z,100399.81
2022-08-21T10:21:11.777Z,100398.50
2022-08-21T10:24:31.255Z,100390.69
2022-08-21T10:27:42.271Z,100388.50
2022-08-21T10:30:53.732Z,100388.03
2022-08-21T10:33:57.763Z,100384.16
2022-08-21T10:36:38.065Z,100391.66
2022-08-21T10:39:39.002Z,100375.88
2022-08-21T10:42:40.352Z,100376.78
2022-08-21T10:45:39.658Z,100370.00
2022-08-21T10:48:15.998Z,100371.94
2022-08-21T10:50:57.540Z,100369.06
2022-08-21T10:53:50.750Z,100371.69
2022-08-21T10:56:40.938Z,100376.47
2022-08-21T10:59:50.578Z,100372.41
2022-08-21T11:02:39.906Z,100376.00
2022-08-21T11:05:51.025Z,100375.31
2022-08-21T11:08:43.201Z,100366.97
2022-08-21T11:11:35.759Z,100360.84
2022-08-21T11:14:50.308Z,100354.34
2022-08-21T11:17:44.862Z,100351.28
2022-08-21T11:20:47.867Z,100349.63
2022-08-21T11:23:27.332Z,100345.38
2022-08-21T11:26:06.817Z,100345.56
2022-08-21T11:28:52.362Z,100342.47
2022-08-21T11:31:44.863Z,100340.94
2022-08-21T11:34:50.168Z,100349.34
2022-08-21T11:37:59.760Z,100348.47
2022-08-21T11:41:03.746Z,100338.56
2022-08-21T11:44:26.937Z,100335.47
2022-08-21T11:47:25.093Z,100338.75
2022-08-21T11:50:34.924Z,100332.94
2022-08-21T11:53:14.890Z,100329.50
2022-08-21T11:55:55.530Z,100326.44
2022-08-21T11:58:48.925Z,100331.91
2022-08-21T12:01:28.556Z,100323.72
2022-08-21T12:04:11.111Z,100323.38
2022-08-21T12:06:42.583Z,100314.47
2022-08-21T12:09:37.878Z,100314.66
2022-08-21T12:12:39.106Z,100303.69
2022-08-21T12:15:26.461Z,100316.19
2022-08-21T12:18:21.889Z,100306.78
2022-08-21T12:21:22.286Z,100298.75
2022-08-21T12:24:14.831Z,100309.19
2022-08-21T12:26:51.110Z,100306.97
2022-08-21T12:29:39.151Z,100295.00
2022-08-21T12:32:16.728Z,100303.75
2022-08-21T12:34:54.404Z,100290.94
2022-08-21T12:38:07.790Z,100295.66
2022-08-21T12:40:58.801Z,100295.03
2022-08-21T12:43:29.417Z,100288.16
2022-08-21T12:46:00.080Z,100286.78
2022-08-21T12:49:03.119Z,100283.91
2022-08-21T12:51:49.470Z,100277.78
2022-08-21T12:54:33.180Z,100284.06
2022-08-21T12:57:07.930Z,100286.81
2022-08-21T12:59:41.018Z,100277.22
2022-08-21T13:02:38.310Z,100285.63
2022-08-21T13:05:18.281Z,100275.53
2022-08-21T13:07:49.954Z,100272.94
2022-08-21T13:10:25.305Z,100274.13
2022-08-21T13:13:12.419Z,100274.63
2022-08-21T13:15:47.895Z,100274.81
2022-08-21T13:18:27.054Z,100274.44
2022-08-21T13:21:13.112Z,100272.06
2022-08-21T13:23:45.062Z,100273.78
2022-08-21T13:26:23.305Z,100260.75
2022-08-21T13:28:52.171Z,100258.38
2022-08-21T13:31:30.795Z,100254.09
2022-08-21T13:34:01.785Z,100266.75
2022-08-21T13:36:41.754Z,100252.34
2022-08-21T13:39:16.615Z,100257.81
2022-08-21T13:41:51.127Z,100254.56
2022-08-21T13:44:44.792Z,100252.50
2022-08-21T13:47:19.202Z,100248.06
2022-08-21T13:49:52.314Z,100245.66
2022-08-21T13:52:27.639Z,100245.13
2022-08-21T13:55:14.558Z,100243.75
2022-08-21T13:57:43.241Z,100242.91
2022-08-21T14:00:31.983Z,100238.78
2022-08-21T14:03:24.629Z,100239.63
2022-08-21T14:05:53.526Z,100235.34
2022-08-21T14:08:33.273Z,100236.34
2022-08-21T14:11:05.454Z,100234.47
2022-08-21T14:13:49.470Z,100233.94
2022-08-21T14:16:25.541Z,100228.25
2022-08-21T14:19:04.326Z,100227.19
2022-08-21T14:21:48.092Z,100212.34
2022-08-21T14:24:35.677Z,100223.91
2022-08-21T14:27:09.639Z,100225.81
2022-08-21T14:29:43.978Z,100220.53
2022-08-21T14:32:26.095Z,100211.91
2022-08-21T14:34:59.222Z,100216.34
2022-08-21T14:37:29.252Z,100206.09
2022-08-21T14:39:59.682Z,100202.97
2022-08-21T14:42:30.025Z,100209.28
2022-08-21T14:45:09.023Z,100199.03
2022-08-21T14:47:39.808Z,100196.59
2022-08-21T14:50:10.911Z,100187.63
2022-08-21T14:52:41.333Z,100186.09
2022-08-21T14:55:15.331Z,100191.31
2022-08-21T14:57:49.742Z,100189.94
2022-08-21T15:00:26.999Z,100183.03
2022-08-21T15:03:06.263Z,100184.94
2022-08-21T15:05:36.414Z,100180.78
2022-08-21T15:08:09.273Z,100183.94
2022-08-21T15:10:48.263Z,100188.72
2022-08-21T15:13:27.450Z,100185.97
2022-08-21T15:15:57.410Z,100171.41
2022-08-21T15:18:29.692Z,100181.34
2022-08-21T15:21:01.908Z,100177.91
2022-08-21T15:23:31.455Z,100174.53
2022-08-21T15:25:59.888Z,100168.19
2022-08-21T15:28:31.736Z,100169.53
2022-08-21T15:31:02.432Z,100165.56
2022-08-21T15:33:30.393Z,100170.19
2022-08-21T15:36:01.292Z,100156.47
2022-08-21T15:38:30.688Z,100166.69
2022-08-21T15:40:59.679Z,100162.94
2022-08-21T15:43:32.021Z,100160.19
2022-08-21T15:46:01.720Z,100163.50
2022-08-21T15:48:32.339Z,100159.16
2022-08-21T15:51:00.799Z,100147.03
2022-08-21T15:53:31.229Z,100157.47
2022-08-21T15:56:04.040Z,100155.56
2022-08-21T15:58:32.513Z,100150.44
2022-08-21T16:01:03.508Z,100141.84
2022-08-21T16:03:33.235Z,100141.72
2022-08-21T16:06:01.600Z,100147.88
2022-08-21T16:08:29.970Z,100148.75
2022-08-21T16:10:58.574Z,100142.56
2022-08-21T16:13:36.631Z,100143.25
2022-08-21T16:16:07.413Z,100142.75
2022-08-21T16:18:35.903Z,100139.19
2022-08-21T16:21:04.640Z,100138.13
2022-08-21T16:23:32.807Z,100138.31
2022-08-21T16:26:02.876Z,100131.50
2022-08-21T16:28:35.828Z,100123.63
2022-08-21T16:31:05.376Z,100137.19
2022-08-21T16:33:41.863Z,100136.31
2022-08-21T16:36:13.212Z,100124.69
2022-08-21T16:38:45.361Z,100135.47
2022-08-21T16:41:19.724Z,100126.56
2022-08-21T16:43:52.399Z,100131.00
2022-08-21T16:46:23.322Z,100134.78
2022-08-21T16:48:52.098Z,100125.72
2022-08-21T16:51:20.690Z,100120.19
2022-08-21T16:53:50.714Z,100125.31
2022-08-21T16:56:21.844Z,100125.47
2022-08-21T16:58:54.211Z,100113.88
2022-08-21T17:01:28.983Z,100116.41
2022-08-21T17:03:58.858Z,100111.66
2022-08-21T17:06:28.981Z,100116.31
2022-08-21T17:08:58.969Z,100112.19
2022-08-21T17:11:40.051Z,100115.78
2022-08-21T17:14:22.764Z,100111.69
2022-08-21T17:16:56.275Z,100111.22
2022-08-21T17:19:26.575Z,100116.56
2022-08-21T17:21:55.169Z,100115.91
2022-08-21T17:24:24.248Z,100113.50
2022-08-21T17:26:56.532Z,100111.16
2022-08-21T17:29:31.463Z,100112.38
2022-08-21T17:32:00.061Z,100112.25
2022-08-21T17:34:31.757Z,100103.72
2022-08-21T17:37:00.713Z,100110.69
2022-08-21T17:39:29.536Z,100110.16
2022-08-21T17:42:03.534Z,100111.66
2022-08-21T17:44:34.815Z,100098.38
2022-08-21T17:47:03.013Z,100110.72
2022-08-21T17:49:31.266Z,100114.00
2022-08-21T17:52:01.197Z,100109.25
2022-08-21T17:54:30.596Z,100112.00
2022-08-21T17:56:59.063Z,100103.50
2022-08-21T17:59:28.122Z,100113.78
2022-08-21T18:02:01.699Z,100112.94
2022-08-21T18:04:31.343Z,100103.25
2022-08-21T18:06:59.613Z,100124.44
2022-08-21T18:09:29.905Z,100099.50
2022-08-21T18:12:00.439Z,100111.47
2022-08-21T18:14:34.756Z,100110.94
2022-08-21T18:17:12.683Z,100096.41
2022-08-21T18:19:48.933Z,100115.91
2022-08-21T18:22:18.375Z,100118.94
2022-08-21T18:24:46.890Z,100121.69
2022-08-21T18:27:18.751Z,100126.41
2022-08-21T18:29:47.769Z,100123.13
2022-08-21T18:32:30.352Z,100125.69
2022-08-21T18:35:03.602Z,100129.03
2022-08-21T18:37:34.319Z,100125.91
2022-08-21T18:40:06.937Z,100127.97
2022-08-21T18:42:42.509Z,100131.69
2022-08-21T18:45:26.222Z,100133.44
2022-08-21T18:47:58.255Z,100133.41
2022-08-21T18:50:29.356Z,100132.66
2022-08-21T18:53:00.176Z,100137.84
2022-08-21T18:55:31.711Z,100152.59
2022-08-21T18:58:00.836Z,100140.28
2022-08-21T19:00:35.741Z,100138.31
2022-08-21T19:03:05.894Z,100144.41
2022-08-21T19:05:36.703Z,100144.22
2022-08-21T19:08:07.455Z,100149.41
2022-08-21T19:10:37.484Z,100144.53
2022-08-21T19:13:16.742Z,100147.72
2022-08-21T19:15:50.342Z,100151.06
2022-08-21T19:18:27.979Z,100153.81
2022-08-21T19:20:57.627Z,100145.72
2022-08-21T19:23:29.141Z,100150.78
2022-08-21T19:26:03.137Z,100155.69
2022-08-21T19:28:41.586Z,100159.00
2022-08-21T19:31:26.141Z,100165.53
2022-08-21T19:34:20.498Z,100163.00
2022-08-21T19:36:52.464Z,100163.91
2022-08-21T19:39:25.510Z,100162.38
2022-08-21T19:41:59.222Z,100176.41
2022-08-21T19:44:31.095Z,100161.97
2022-08-21T19:50:00.207Z,100166.44
2022-08-21T19:52:29.128Z,100177.03
2022-08-21T19:54:59.944Z,100173.06
2022-08-21T19:57:30.064Z,100170.25
2022-08-21T19:59:58.924Z,100167.81
2022-08-21T20:02:28.946Z,100167.81
2022-08-21T20:04:57.817Z,100162.13
2022-08-21T20:07:27.231Z,100168.56
2022-08-21T20:09:57.760Z,100164.84
2022-08-21T20:12:26.761Z,100176.41
2022-08-21T20:14:58.503Z,100165.28
2022-08-21T20:17:27.202Z,100172.28
2022-08-21T20:19:56.529Z,100171.84
2022-08-21T20:22:25.170Z,100167.59
2022-08-21T20:24:55.307Z,100172.44
2022-08-21T20:27:27.464Z,100163.00
2022-08-21T20:29:57.417Z,100151.72
2022-08-21T20:32:27.699Z,100165.16
2022-08-21T20:34:56.682Z,100166.44
2022-08-21T20:40:20.965Z,100165.69
2022-08-21T20:42:53.582Z,100161.41
2022-08-21T20:45:25.945Z,100171.69
2022-08-21T20:48:05.587Z,100165.53
2022-08-21T20:50:39.686Z,100167.69
2022-08-21T20:53:26.081Z,100170.53
2022-08-21T20:56:19.651Z,100167.53
2022-08-21T20:59:20.293Z,100171.38
2022-08-21T21:01:52.046Z,100167.66
2022-08-21T21:04:45.305Z,100175.50
2022-08-21T21:07:24.222Z,100171.50
2022-08-21T21:09:55.886Z,100174.91
2022-08-21T21:12:40.404Z,100172.31
2022-08-21T21:15:27.741Z,100173.47
2022-08-21T21:18:21.232Z,100165.03
2022-08-21T21:21:08.555Z,100177.59
2022-08-21T21:24:08.783Z,100175.88
2022-08-21T21:26:53.961Z,100172.72
2022-08-21T21:29:35.630Z,100182.84
2022-08-21T21:32:07.708Z,100180.91
2022-08-21T21:34:46.705Z,100187.19
2022-08-21T21:37:56.576Z,100181.31
2022-08-21T21:40:53.532Z,100178.31
2022-08-21T21:43:56.647Z,100181.16
2022-08-21T21:46:52.566Z,100185.97
2022-08-21T21:50:00.238Z,100189.25
2022-08-21T21:52:48.573Z,100185.09
2022-08-21T21:56:06.408Z,100186.75
2022-08-21T21:58:44.930Z,100192.94
2022-08-21T22:01:23.820Z,100186.81
2022-08-21T22:04:56.016Z,100177.50
2022-08-21T22:07:37.579Z,100182.22
2022-08-21T22:10:43.250Z,100186.34
2022-08-21T22:13:29.169Z,100186.75
2022-08-21T22:16:05.334Z,100191.69
2022-08-21T22:18:54.690Z,100183.81
2022-08-21T22:21:36.358Z,100191.09
2022-08-21T22:24:22.578Z,100195.66
2022-08-21T22:27:02.040Z,100202.53
2022-08-21T22:32:50.399Z,100195.81
2022-08-21T22:35:28.339Z,100195.72
2022-08-21T22:38:12.715Z,100207.19
2022-08-21T22:40:42.036Z,100198.00
2022-08-21T22:43:19.500Z,100197.41
2022-08-21T22:46:07.129Z,100202.38
2022-08-21T22:48:53.499Z,100200.28
2022-08-21T22:51:38.713Z,100199.09
2022-08-21T22:54:21.748Z,100192.94
2022-08-21T22:57:02.284Z,100205.75
2022-08-21T22:59:40.716Z,100203.66
2022-08-21T23:02:22.588Z,100191.88
2022-08-21T23:04:57.459Z,100209.22
2022-08-21T23:07:49.632Z,100218.44
2022-08-21T23:10:30.123Z,100210.84
2022-08-21T23:16:55.667Z,100207.91
2022-08-21T23:19:57.925Z,100213.09
2022-08-21T23:22:49.239Z,100218.72
2022-08-21T23:25:36.061Z,100216.41
2022-08-21T23:28:27.051Z,100208.16
2022-08-21T23:31:28.927Z,100217.75
2022-08-21T23:34:27.702Z,100217.91
2022-08-21T23:37:23.186Z,100219.00
2022-08-21T23:40:23.156Z,100219.00
2022-08-21T23:43:31.008Z,100218.25
2022-08-21T23:46:11.400Z,100221.06
2022-08-21T23:49:19.394Z,100210.63
2022-08-21T23:52:04.322Z,100224.28
2022-08-21T23:55:16.337Z,100226.13
2022-08-21T23:58:04.943Z,100225.63
